TACO10 KCOS-KDEN
Flight info
| Callsign | TACO10 |
|---|---|
| Flight time | 0h 17m |
| Altitude | 16000 |
| Route | ADANE V389 LUFSE/N0353F150 JEFEL/N0350F140 |
| Aircraft | B737/M-SDE2E3FGHIRWXY/LB1 |
Departure
| Time | 2026-04-25 23:41 |
|---|---|
| Airport | City of Colorado Springs Municipal Airport (KCOS) |
Arrival
| Time | 2026-04-25 23:58 |
|---|---|
| Airport | Denver International Airport (KDEN) |
| Time | Latitude | Longitude | Altitude | Speed | Heading |
|---|---|---|---|---|---|
| 2026-04-25 23:20 | 38.80016 | -104.70081 | 6192 ft | 0 kts | 179° |
| 2026-04-25 23:28 | 38.80018 | -104.70081 | 6193 ft | 0 kts | 179° |
| 2026-04-25 23:28 | 38.80020 | -104.70081 | 6193 ft | 0 kts | 179° |
| 2026-04-25 23:28 | 38.80022 | -104.70081 | 6193 ft | 0 kts | 179° |
| 2026-04-25 23:28 | 38.80025 | -104.70081 | 6193 ft | 0 kts | 179° |
| 2026-04-25 23:30 | 38.80037 | -104.70081 | 6192 ft | 2 kts | 179° |
| 2026-04-25 23:30 | 38.80053 | -104.70081 | 6191 ft | 2 kts | 173° |
| 2026-04-25 23:30 | 38.80069 | -104.70086 | 6191 ft | 2 kts | 153° |
| 2026-04-25 23:30 | 38.80074 | -104.70101 | 6192 ft | 0 kts | 86° |
| 2026-04-25 23:33 | 38.80076 | -104.70099 | 6193 ft | 0 kts | 64° |
| 2026-04-25 23:33 | 38.80080 | -104.70098 | 6193 ft | 1 kts | 20° |
| 2026-04-25 23:34 | 38.80105 | -104.70088 | 6193 ft | 6 kts | 15° |
| 2026-04-25 23:34 | 38.80158 | -104.70085 | 6193 ft | 10 kts | 0° |
| 2026-04-25 23:34 | 38.80242 | -104.70083 | 6192 ft | 14 kts | 9° |
| 2026-04-25 23:34 | 38.80285 | -104.70021 | 6193 ft | 6 kts | 94° |
| 2026-04-25 23:35 | 38.80283 | -104.69952 | 6193 ft | 10 kts | 92° |
| 2026-04-25 23:35 | 38.80280 | -104.69845 | 6193 ft | 14 kts | 90° |
| 2026-04-25 23:35 | 38.80279 | -104.69705 | 6193 ft | 18 kts | 90° |
| 2026-04-25 23:35 | 38.80279 | -104.69535 | 6193 ft | 21 kts | 90° |
| 2026-04-25 23:36 | 38.80279 | -104.69334 | 6193 ft | 24 kts | 90° |
| 2026-04-25 23:36 | 38.80279 | -104.69108 | 6193 ft | 27 kts | 90° |
| 2026-04-25 23:36 | 38.80278 | -104.68866 | 6193 ft | 27 kts | 91° |
| 2026-04-25 23:36 | 38.80203 | -104.68787 | 6193 ft | 13 kts | 181° |
| 2026-04-25 23:37 | 38.80117 | -104.68787 | 6193 ft | 12 kts | 180° |
| 2026-04-25 23:37 | 38.80031 | -104.68787 | 6193 ft | 13 kts | 180° |
| 2026-04-25 23:37 | 38.79935 | -104.68787 | 6193 ft | 15 kts | 180° |
| 2026-04-25 23:37 | 38.79823 | -104.68789 | 6193 ft | 17 kts | 181° |
| 2026-04-25 23:38 | 38.79697 | -104.68789 | 6192 ft | 18 kts | 180° |
| 2026-04-25 23:38 | 38.79562 | -104.68790 | 6192 ft | 21 kts | 180° |
| 2026-04-25 23:38 | 38.79410 | -104.68790 | 6192 ft | 24 kts | 180° |
| 2026-04-25 23:38 | 38.79231 | -104.68789 | 6192 ft | 27 kts | 180° |
| 2026-04-25 23:39 | 38.79033 | -104.68790 | 6193 ft | 30 kts | 180° |
| 2026-04-25 23:39 | 38.78819 | -104.68788 | 6193 ft | 32 kts | 180° |
| 2026-04-25 23:39 | 38.78593 | -104.68788 | 6193 ft | 34 kts | 179° |
| 2026-04-25 23:39 | 38.78349 | -104.68792 | 6193 ft | 36 kts | 179° |
| 2026-04-25 23:40 | 38.78099 | -104.68791 | 6192 ft | 35 kts | 180° |
| 2026-04-25 23:40 | 38.77917 | -104.68739 | 6192 ft | 16 kts | 110° |
| 2026-04-25 23:40 | 38.77920 | -104.68613 | 6190 ft | 14 kts | 70° |
| 2026-04-25 23:40 | 38.77954 | -104.68579 | 6189 ft | 2 kts | 359° |
| 2026-04-25 23:41 | 38.78142 | -104.68582 | 6192 ft | 66 kts | 1° |
| 2026-04-25 23:41 | 38.78872 | -104.68582 | 6195 ft | 141 kts | 360° |
| 2026-04-25 23:41 | 38.80088 | -104.68585 | 6235 ft | 204 kts | 0° |
| 2026-04-25 23:41 | 38.81609 | -104.68644 | 6836 ft | 234 kts | 359° |
| 2026-04-25 23:42 | 38.83311 | -104.68329 | 7156 ft | 268 kts | 30° |
| 2026-04-25 23:42 | 38.84717 | -104.66662 | 7641 ft | 287 kts | 66° |
| 2026-04-25 23:42 | 38.85162 | -104.64224 | 8813 ft | 280 kts | 90° |
| 2026-04-25 23:42 | 38.85284 | -104.61713 | 9789 ft | 286 kts | 87° |
| 2026-04-25 23:43 | 38.85596 | -104.59129 | 10494 ft | 300 kts | 80° |
| 2026-04-25 23:43 | 38.86138 | -104.56488 | 11171 ft | 312 kts | 74° |
| 2026-04-25 23:43 | 38.86856 | -104.53826 | 11741 ft | 318 kts | 70° |
| 2026-04-25 23:43 | 38.87685 | -104.51204 | 12040 ft | 321 kts | 68° |
| 2026-04-25 23:44 | 38.88597 | -104.48527 | 12054 ft | 339 kts | 66° |
| 2026-04-25 23:44 | 38.89611 | -104.45614 | 12081 ft | 371 kts | 66° |
| 2026-04-25 23:44 | 38.90987 | -104.42669 | 12038 ft | 399 kts | 47° |
| 2026-04-25 23:44 | 38.93152 | -104.40497 | 12022 ft | 401 kts | 24° |
| 2026-04-25 23:45 | 38.95818 | -104.39534 | 12024 ft | 396 kts | 2° |
| 2026-04-25 23:45 | 38.98533 | -104.39378 | 12029 ft | 394 kts | 359° |
| 2026-04-25 23:45 | 39.01286 | -104.39297 | 12010 ft | 394 kts | 359° |
| 2026-04-25 23:45 | 39.04038 | -104.39217 | 11997 ft | 394 kts | 359° |
| 2026-04-25 23:46 | 39.06779 | -104.39117 | 11998 ft | 394 kts | 359° |
| 2026-04-25 23:46 | 39.09501 | -104.38997 | 11991 ft | 394 kts | 360° |
| 2026-04-25 23:46 | 39.12255 | -104.38864 | 11985 ft | 394 kts | 360° |
| 2026-04-25 23:46 | 39.14974 | -104.38726 | 11985 ft | 395 kts | 0° |
| 2026-04-25 23:47 | 39.17734 | -104.38586 | 11958 ft | 395 kts | 0° |
| 2026-04-25 23:47 | 39.20478 | -104.38298 | 11939 ft | 397 kts | 10° |
| 2026-04-25 23:47 | 39.23020 | -104.36999 | 11947 ft | 399 kts | 31° |
| 2026-04-25 23:47 | 39.25379 | -104.35124 | 11921 ft | 399 kts | 22° |
| 2026-04-25 23:48 | 39.28057 | -104.34395 | 11942 ft | 392 kts | 358° |
| 2026-04-25 23:48 | 39.30714 | -104.34962 | 11947 ft | 386 kts | 338° |
| 2026-04-25 23:48 | 39.33046 | -104.36626 | 11939 ft | 381 kts | 318° |
| 2026-04-25 23:48 | 39.34905 | -104.38950 | 11402 ft | 367 kts | 310° |
| 2026-04-25 23:49 | 39.36580 | -104.41437 | 10404 ft | 365 kts | 306° |
| 2026-04-25 23:49 | 39.37828 | -104.44265 | 9459 ft | 363 kts | 290° |
| 2026-04-25 23:49 | 39.38713 | -104.47250 | 9208 ft | 343 kts | 288° |
| 2026-04-25 23:49 | 39.39488 | -104.50025 | 9058 ft | 321 kts | 288° |
| 2026-04-25 23:50 | 39.40221 | -104.52665 | 8945 ft | 301 kts | 287° |
| 2026-04-25 23:50 | 39.40907 | -104.55134 | 8951 ft | 281 kts | 287° |
| 2026-04-25 23:50 | 39.41551 | -104.57452 | 8983 ft | 275 kts | 287° |
| 2026-04-25 23:50 | 39.42196 | -104.59784 | 8989 ft | 276 kts | 287° |
| 2026-04-25 23:51 | 39.42846 | -104.62132 | 8974 ft | 273 kts | 288° |
| 2026-04-25 23:51 | 39.43817 | -104.64188 | 8966 ft | 267 kts | 316° |
| 2026-04-25 23:51 | 39.45276 | -104.65622 | 9008 ft | 267 kts | 326° |
| 2026-04-25 23:51 | 39.46998 | -104.66474 | 8986 ft | 263 kts | 358° |
| 2026-04-25 23:52 | 39.48758 | -104.66522 | 8949 ft | 241 kts | 3° |
| 2026-04-25 23:52 | 39.50355 | -104.66490 | 8941 ft | 223 kts | 3° |
| 2026-04-25 23:52 | 39.51951 | -104.66453 | 9024 ft | 235 kts | 3° |
| 2026-04-25 23:52 | 39.53598 | -104.66420 | 8991 ft | 236 kts | 2° |
| 2026-04-25 23:53 | 39.55203 | -104.66392 | 8987 ft | 230 kts | 2° |
| 2026-04-25 23:53 | 39.56794 | -104.66370 | 8994 ft | 226 kts | 2° |
| 2026-04-25 23:53 | 39.58346 | -104.66352 | 8972 ft | 220 kts | 2° |
| 2026-04-25 23:53 | 39.59888 | -104.66331 | 8997 ft | 222 kts | 2° |
| 2026-04-25 23:54 | 39.61407 | -104.66312 | 8909 ft | 219 kts | 2° |
| 2026-04-25 23:54 | 39.62909 | -104.66295 | 8553 ft | 213 kts | 2° |
| 2026-04-25 23:54 | 39.64397 | -104.66279 | 8039 ft | 212 kts | 2° |
| 2026-04-25 23:54 | 39.65869 | -104.66260 | 7505 ft | 211 kts | 3° |
| 2026-04-25 23:55 | 39.67332 | -104.66242 | 7078 ft | 208 kts | 3° |
| 2026-04-25 23:55 | 39.68748 | -104.66225 | 7045 ft | 208 kts | 4° |
| 2026-04-25 23:55 | 39.70188 | -104.66209 | 7004 ft | 202 kts | 4° |
| 2026-04-25 23:55 | 39.71547 | -104.66195 | 7000 ft | 187 kts | 4° |
| 2026-04-25 23:56 | 39.72787 | -104.66183 | 6945 ft | 169 kts | 5° |
| 2026-04-25 23:56 | 39.73932 | -104.66169 | 6980 ft | 164 kts | 4° |
| 2026-04-25 23:56 | 39.75046 | -104.66154 | 6990 ft | 157 kts | 5° |
| 2026-04-25 23:56 | 39.76102 | -104.66141 | 6956 ft | 149 kts | 5° |
| 2026-04-25 23:57 | 39.77152 | -104.66151 | 6862 ft | 152 kts | 4° |
| 2026-04-25 23:57 | 39.78191 | -104.66150 | 6671 ft | 150 kts | 5° |
| 2026-04-25 23:57 | 39.79231 | -104.66140 | 6443 ft | 147 kts | 5° |
| 2026-04-25 23:57 | 39.80234 | -104.66122 | 6158 ft | 139 kts | 6° |
| 2026-04-25 23:58 | 39.81196 | -104.66100 | 5890 ft | 138 kts | 5° |
| 2026-04-25 23:58 | 39.82136 | -104.66078 | 5658 ft | 135 kts | 5° |
| 2026-04-25 23:58 | 39.83070 | -104.66064 | 5451 ft | 132 kts | 5° |
| 2026-04-25 23:58 | 39.83763 | -104.66044 | 5423 ft | 48 kts | 1° |
| 2026-04-25 23:59 | 39.83994 | -104.66037 | 5414 ft | 30 kts | 1° |
| 2026-04-25 23:59 | 39.84155 | -104.66059 | 5419 ft | 6 kts | 308° |
| 2026-04-25 23:59 | 39.84151 | -104.66113 | 5419 ft | 6 kts | 234° |
| 2026-04-25 23:59 | 39.84107 | -104.66143 | 5414 ft | 10 kts | 204° |
| 2026-04-26 00:00 | 39.84055 | -104.66180 | 5419 ft | 13 kts | 225° |
| 2026-04-26 00:00 | 39.84019 | -104.66327 | 5412 ft | 13 kts | 256° |
| 2026-04-26 00:00 | 39.83962 | -104.66413 | 5412 ft | 12 kts | 211° |
| 2026-04-26 00:00 | 39.83943 | -104.66422 | 5415 ft | 0 kts | 193° |